Latest Weather Observations for Yulara

IDD60801

Issued at 9:05 pm CST Friday 28 November 2014 (issued every 30 minutes, with the page automatically refreshed every 10 minutes)

About weather observations | Map of weather stations | Latest weather observations for NT | Other Formats
Station Details ID: 015635 Name: YULARA AIRPORT Lat: -25.19 Lon: 130.97 Height: 492.0 m
Data from the previous 72 hours. | See also: Recent months at Yulara
Date/Time
CST
Temp
°C
App
Temp
°C
Dew
Point
Rel
Hum
%
Delta-T
°C
Wind Press
QNH
hPa
Press
MSL
hPa
Rain
since 9 am
mm
Dir
 
Spd
km/h
Gust
km/h
Spd
kts
Gust
kts
28/09:00pm 30.8 28.8 8.5 25 12.6 WSW 9 11 5 6 1010.9 1007.7 0.0
28/08:30pm 31.1 29.4 8.2 24 12.9 SW 7 9 4 5 1010.7 1007.5 0.0
28/08:00pm 31.8 30.0 8.1 23 13.4 W 7 9 4 5 1010.4 1007.2 0.0
28/07:30pm 32.9 29.3 8.4 22 14.0 W 17 24 9 13 1010.4 1007.2 0.0
28/07:00pm 33.6 29.8 7.5 20 14.7 W 17 24 9 13 1010.4 1007.2 0.0
28/06:30pm 33.9 29.4 7.0 19 15.1 W 20 26 11 14 1010.2 1007.1 0.0
28/06:00pm 34.2 28.5 6.5 18 15.5 WNW 26 37 14 20 1010.0 1006.9 0.0
28/05:30pm 36.5 32.7 3.7 13 17.7 NW 13 20 7 11 1009.8 1006.6 0.0
28/05:00pm 36.3 34.3 2.4 12 17.9 SSE 2 9 1 5 1009.8 1006.6 0.0
28/04:30pm 35.8 33.2 3.1 13 17.4 W 6 15 3 8 1010.1 1007.0 0.0
28/04:00pm 37.6 34.1 3.4 12 18.5 NNW 11 19 6 10 1010.5 1007.3 0.0
28/03:30pm 36.1 32.8 2.2 12 17.9 WNW 9 17 5 9 1010.8 1007.6 0.0
28/03:00pm 36.7 32.9 1.5 11 18.4 N 11 28 6 15 1011.3 1008.1 0.0
28/02:30pm 35.9 32.5 2.1 12 17.8 WSW 9 19 5 10 1011.6 1008.4 0.0
28/02:00pm 36.0 31.7 0.9 11 18.1 N 13 24 7 13 1012.1 1009.0 0.0
28/01:30pm 35.6 32.0 0.6 11 17.9 NW 9 20 5 11 1012.8 1009.6 0.0
28/01:00pm 35.0 30.0 -1.1 10 17.9 E 15 20 8 11 1013.2 1010.0 0.0
28/12:30pm 34.2 28.4 -1.7 10 17.5 ENE 19 28 10 15 1013.8 1010.7 0.0
28/12:00pm 32.9 27.3 -2.7 10 17.0 NE 17 24 9 13 1014.3 1011.2 0.0
28/11:30am 33.5 27.6 -2.3 10 17.2 NE 19 28 10 15 1014.8 1011.6 0.0
28/11:00am 32.9 26.0 -2.7 10 17.0 ENE 24 35 13 19 1015.2 1012.0 0.0
28/10:30am 32.4 25.6 -1.8 11 16.5 NE 24 32 13 17 1015.6 1012.5 0.0
28/10:00am 31.2 24.8 -1.5 12 15.7 E 22 35 12 19 1015.9 1012.8 0.0
28/09:30am 30.2 23.5 -1.2 13 15.0 E 24 33 13 18 1016.2 1013.1 0.0
28/09:00am 29.1 22.3 -2.1 13 14.6 E 24 32 13 17 1016.5 1013.4 0.0
28/08:30am 27.7 20.7 -3.2 13 14.0 E 24 32 13 17 1016.4 1013.3 0.0
28/08:00am 26.8 22.0 -2.9 14 13.5 ESE 13 19 7 10 1016.5 1013.4 0.0
28/07:30am 24.8 19.9 -3.6 15 12.5 SE 13 19 7 10 1016.3 1013.2 0.0
28/07:00am 23.5 19.9 -2.2 18 11.5 S 7 9 4 5 1016.3 1013.2 0.0
28/06:30am 23.8 19.5 -1.9 18 11.6 ESE 11 15 6 8 1015.7 1012.6 0.0
28/06:00am 21.1 19.3 0.9 26 9.4 CALM 0 7 0 4 1015.3 1012.1 0.0
28/05:30am 21.5 17.5 0.7 25 9.7 S 11 15 6 8 1014.9 1011.7 0.0
28/05:00am 21.7 19.5 -1.6 21 10.4 CALM 0 0 0 0 1014.8 1011.6 0.0
28/04:30am 22.0 19.1 -1.3 21 10.5 SW 4 9 2 5 1014.3 1011.2 0.0
28/04:00am 21.8 19.5 -2.1 20 10.6 CALM 0 0 0 0 1014.2 1011.1 0.0
28/03:30am 22.4 20.0 -3.1 18 11.1 CALM 0 0 0 0 1013.9 1010.8 0.0
28/03:00am 24.5 20.7 -3.8 15 12.4 ESE 7 9 4 5 1013.8 1010.7 0.0
28/02:30am 25.4 21.8 -4.0 14 12.9 E 6 7 3 4 1013.7 1010.6 0.0
28/02:00am 24.3 21.0 -4.0 15 12.3 ENE 4 9 2 5 1013.7 1010.6 0.0
28/01:30am 24.8 21.1 -4.5 14 12.7 N 6 7 3 4 1014.0 1010.9 0.0
28/01:00am 25.6 21.9 -4.8 13 13.2 E 6 7 3 4 1014.1 1011.0 0.0
28/12:30am 27.2 22.4 -5.8 11 14.3 ESE 11 15 6 8 1014.5 1011.4 0.0
28/12:00am 27.3 22.3 -4.6 12 14.1 E 13 17 7 9 1014.5 1011.4 0.0
 
Date/Time
CST
Temp
°C
App
Temp
°C
Dew
Point
Rel
Hum
%
Delta-T
°C
Wind Press
QNH
hPa
Press
MSL
hPa
Rain
since 9 am
mm
Dir
 
Spd
km/h
Gust
km/h
Spd
kts
Gust
kts
27/11:30pm 27.2 22.3 -3.6 13 13.8 ESE 13 17 7 9 1014.5 1011.4 0.0
27/11:00pm 27.7 23.6 -3.2 13 14.0 E 9 13 5 7 1014.4 1011.3 0.0
27/10:30pm 28.4 24.6 -3.7 12 14.5 E 7 9 4 5 1014.5 1011.4 0.0
27/10:00pm 29.0 24.9 -3.2 12 14.8 E 9 13 5 7 1014.3 1011.2 0.0
27/09:30pm 29.9 25.7 -3.7 11 15.4 E 9 11 5 6 1014.1 1011.0 0.0
27/09:00pm 30.4 25.9 -3.3 11 15.6 E 11 13 6 7 1013.9 1010.8 0.0
27/08:30pm 31.1 26.9 -4.1 10 16.2 E 9 13 5 7 1013.9 1010.8 0.0
27/08:00pm 32.2 27.9 -4.6 9 16.9 E 9 13 5 7 1013.6 1010.4 0.0
27/07:30pm 33.3 27.6 -3.8 9 17.4 E 17 20 9 11 1013.3 1010.1 0.0
27/07:00pm 34.4 28.0 -4.6 8 18.2 E 20 28 11 15 1012.9 1009.7 0.0
27/06:30pm 35.6 29.5 -3.7 8 18.8 E 19 28 10 15 1012.3 1009.2 0.0
27/06:00pm 35.8 29.6 -3.5 8 18.9 E 20 28 11 15 1011.8 1008.6 0.0
27/05:30pm 35.8 29.7 -3.5 8 18.9 ESE 19 32 10 17 1011.8 1008.6 0.0
27/05:00pm 35.9 30.4 -1.9 9 18.6 SE 17 26 9 14 1012.1 1009.0 0.0
27/04:30pm 36.3 30.3 -1.6 9 18.8 ESE 20 28 11 15 1012.3 1009.2 0.0
27/04:00pm 36.2 29.4 -1.7 9 18.8 ENE 24 33 13 18 1012.7 1009.5 0.0
27/03:30pm 35.9 29.9 -1.9 9 18.6 E 20 28 11 15 1013.3 1010.1 0.0
27/03:00pm 35.7 31.9 -0.6 10 18.2 ENE 9 24 5 13 1013.6 1010.4 0.0
27/02:30pm 36.2 30.4 -1.7 9 18.8 E 19 30 10 16 1014.0 1010.9 0.0
27/02:00pm 34.8 29.2 0.0 11 17.5 ENE 19 33 10 18 1014.5 1011.4 0.0
27/01:30pm 34.3 30.4 -1.7 10 17.6 ENE 9 17 5 9 1014.8 1011.6 0.0
27/01:00pm 34.6 29.6 -1.4 10 17.7 ENE 15 24 8 13 1015.3 1012.1 0.0
27/12:30pm 34.6 28.6 -1.4 10 17.7 NE 20 28 11 15 1015.7 1012.6 0.0
27/12:00pm 33.8 27.7 -3.5 9 17.6 NE 19 33 10 18 1016.1 1013.0 0.0
27/11:30am 33.2 26.7 -2.5 10 17.1 NE 22 35 12 19 1016.6 1013.5 0.0
27/11:00am 32.3 25.3 -3.2 10 16.7 NE 24 33 13 18 1017.0 1013.8 0.0
27/10:30am 32.5 25.6 -3.0 10 16.8 ENE 24 37 13 20 1017.4 1014.3 0.0
27/10:00am 31.5 23.3 -3.8 10 16.3 ENE 30 41 16 22 1017.5 1014.4 0.0
27/09:30am 30.9 22.5 -5.6 9 16.3 ENE 30 43 16 23 1017.5 1014.4 0.0
27/09:00am 29.7 22.0 -6.5 9 15.8 ENE 26 43 14 23 1017.7 1014.6 0.0
27/08:30am 29.0 21.3 -7.0 9 15.4 E 26 39 14 21 1017.8 1014.7 0.0
27/08:00am 27.7 20.0 -6.6 10 14.7 E 26 39 14 21 1017.8 1014.7 0.0
27/07:30am 26.7 19.4 -6.2 11 14.0 E 24 30 13 16 1017.5 1014.4 0.0
27/07:00am 24.2 19.4 -5.9 13 12.6 E 11 17 6 9 1017.2 1014.0 0.0
27/06:30am 21.3 16.9 -5.5 16 11.0 ESE 9 13 5 7 1016.9 1013.7 0.0
27/06:00am 19.4 16.3 -6.2 17 10.2 SSE 2 7 1 4 1016.8 1013.6 0.0
27/05:30am 20.9 17.7 -6.7 15 11.0 ESE 2 6 1 3 1016.5 1013.4 0.0
27/05:00am 23.1 19.0 -6.8 13 12.2 E 7 9 4 5 1015.9 1012.8 0.0
27/04:30am 24.3 20.1 -8.0 11 13.0 ESE 7 13 4 7 1015.3 1012.1 0.0
27/04:00am 24.9 18.7 -8.8 10 13.5 SE 17 20 9 11 1014.8 1011.6 0.0
27/03:30am 25.6 20.2 -8.2 10 13.8 ESE 13 20 7 11 1014.8 1011.6 0.0
27/03:00am 25.6 19.8 -8.2 10 13.8 ESE 15 19 8 10 1014.4 1011.3 0.0
27/02:30am 26.1 20.0 -7.9 10 14.0 ESE 17 22 9 12 1014.5 1011.4 0.0
27/02:00am 26.3 20.2 -7.7 10 14.1 ESE 17 24 9 13 1014.8 1011.6 0.0
27/01:30am 26.4 20.3 -7.6 10 14.1 ESE 17 24 9 13 1014.8 1011.6 0.0
27/01:00am 25.8 20.9 -6.9 11 13.7 SE 11 13 6 7 1015.4 1012.2 0.0
27/12:30am 26.5 22.2 -5.2 12 13.7 ESE 9 13 5 7 1015.5 1012.3 0.0
27/12:00am 26.4 22.2 -4.2 13 13.5 ESE 9 15 5 8 1015.5 1012.3 0.0
 
Date/Time
CST
Temp
°C
App
Temp
°C
Dew
Point
Rel
Hum
%
Delta-T
°C
Wind Press
QNH
hPa
Press
MSL
hPa
Rain
since 9 am
mm
Dir
 
Spd
km/h
Gust
km/h
Spd
kts
Gust
kts
26/11:30pm 27.1 22.2 -3.7 13 13.8 ESE 13 17 7 9 1015.5 1012.3 0.0
26/11:00pm 27.3 22.5 -2.5 14 13.7 ESE 13 17 7 9 1015.5 1012.3 0.0
26/10:30pm 27.3 23.1 -0.7 16 13.3 ESE 11 15 6 8 1015.3 1012.1 0.0
26/10:00pm 27.8 23.7 -0.3 16 13.5 ESE 11 17 6 9 1014.9 1011.7 0.0
26/09:30pm 28.1 24.1 0.8 17 13.4 ESE 11 13 6 7 1014.3 1011.2 0.0
26/09:00pm 29.0 25.4 0.7 16 13.9 ESE 9 13 5 7 1014.1 1011.0 0.0
26/08:30pm 30.4 26.7 -0.1 14 14.9 ESE 9 13 5 7 1014.0 1010.9 0.0
26/08:00pm 31.2 27.1 -0.5 13 15.5 ESE 11 13 6 7 1013.7 1010.6 0.0
26/07:30pm 31.7 28.0 -0.1 13 15.7 ESE 9 11 5 6 1013.5 1010.3 0.0
26/07:00pm 33.2 29.0 -1.2 11 16.8 E 11 17 6 9 1013.4 1010.2 0.0
26/06:30pm 34.0 28.5 -1.9 10 17.5 E 17 22 9 12 1013.1 1009.9 0.0
26/06:00pm 34.2 29.5 -1.7 10 17.5 E 13 19 7 10 1013.1 1009.9 0.0
26/05:30pm 35.0 29.3 -1.1 10 17.9 E 19 24 10 13 1013.0 1009.8 0.0
26/05:00pm 34.4 29.7 -1.6 10 17.6 E 13 20 7 11 1013.2 1010.0 0.0
26/04:30pm 34.6 30.0 -1.4 10 17.7 E 13 19 7 10 1013.4 1010.2 0.0
26/04:00pm 34.9 30.3 -1.2 10 17.9 ENE 13 26 7 14 1013.5 1010.3 0.0
26/03:30pm 35.7 30.4 -0.6 10 18.2 E 17 26 9 14 1013.7 1010.6 0.0
26/03:00pm 34.9 28.4 0.1 11 17.6 ESE 24 30 13 16 1013.9 1010.8 0.0
26/02:30pm 34.3 28.3 0.8 12 17.1 E 22 32 12 17 1014.2 1011.1 0.0
26/02:00pm 33.6 27.1 0.3 12 16.7 ENE 24 30 13 16 1014.5 1011.4 0.0
26/01:30pm 34.0 28.9 0.6 12 16.9 E 17 30 9 16 1015.0 1011.8 0.0
26/01:00pm 34.7 28.7 1.1 12 17.2 E 22 32 12 17 1015.6 1012.5 0.0
26/12:30pm 33.2 27.4 2.1 14 16.1 ESE 22 35 12 19 1016.1 1013.0 0.0
26/12:00pm 32.6 26.5 2.6 15 15.6 E 24 33 13 18 1016.6 1013.5 0.0
26/11:30am 32.0 26.9 3.1 16 15.1 ESE 19 30 10 16 1017.2 1014.0 0.0
26/11:00am 31.0 25.3 3.1 17 14.5 ENE 22 30 12 16 1017.8 1014.7 0.0
26/10:30am 29.8 23.7 2.9 18 13.8 ENE 24 32 13 17 1018.0 1014.9 0.0
26/10:00am 29.5 22.6 2.7 18 13.7 E 28 37 15 20 1018.3 1015.2 0.0
26/09:30am 28.1 20.4 2.3 19 12.9 ENE 32 43 17 23 1018.2 1015.1 0.0
26/09:00am 27.6 20.5 3.3 21 12.4 E 30 39 16 21 1018.3 1015.2 0.0
26/08:30am 27.0 20.1 2.8 21 12.2 E 28 35 15 19 1018.4 1015.3 0.0
26/08:00am 25.8 19.0 0.5 19 12.1 E 26 35 14 19 1018.3 1015.2 0.0
26/07:30am 24.5 17.8 -1.3 18 11.8 ESE 24 35 13 19 1018.1 1015.0 0.0
26/07:00am 23.0 18.2 0.2 22 10.6 ESE 15 22 8 12 1018.0 1014.9 0.0
26/06:30am 20.5 17.0 1.4 28 8.9 SE 9 13 5 7 1017.8 1014.7 0.0
26/06:00am 19.7 16.0 2.1 31 8.3 SE 11 13 6 7 1017.5 1014.4 0.0
26/05:30am 19.6 16.4 2.9 33 8.0 SE 9 11 5 6 1017.2 1014.0 0.0
26/05:00am 20.2 17.2 3.9 34 8.0 SE 9 13 5 7 1016.9 1013.7 0.0
26/04:30am 20.9 17.6 4.5 34 8.2 SE 11 13 6 7 1017.0 1013.8 0.0
26/04:00am 21.5 18.2 4.6 33 8.5 SE 11 15 6 8 1016.6 1013.5 0.0
26/03:30am 21.5 17.9 5.0 34 8.3 SE 13 13 7 7 1016.3 1013.2 0.0
26/03:00am 22.4 19.5 4.9 32 8.9 SE 9 11 5 6 1016.5 1013.4 0.0
26/02:30am 23.7 20.5 5.1 30 9.5 ESE 11 15 6 8 1016.5 1013.4 0.0
26/02:00am 24.4 21.2 5.2 29 9.9 ESE 11 15 6 8 1016.5 1013.4 0.0
26/01:30am 24.8 21.0 5.6 29 10.0 E 15 19 8 10 1016.5 1013.4 0.0
26/01:00am 25.2 21.8 5.9 29 10.1 E 13 17 7 9 1016.8 1013.6 0.0
26/12:30am 25.6 21.8 5.8 28 10.4 ESE 15 19 8 10 1016.8 1013.6 0.0
26/12:00am 26.0 21.8 5.6 27 10.7 ESE 17 20 9 11 1016.8 1013.6 0.0
 
Date/Time
CST
Temp
°C
App
Temp
°C
Dew
Point
Rel
Hum
%
Delta-T
°C
Wind Press
QNH
hPa
Press
MSL
hPa
Rain
since 9 am
mm
Dir
 
Spd
km/h
Gust
km/h
Spd
kts
Gust
kts
25/11:30pm 26.6 22.1 6.1 27 10.9 E 19 24 10 13 1017.0 1013.8 0.0
25/11:00pm 27.1 22.6 6.0 26 11.2 E 19 24 10 13 1017.0 1013.8 0.0
25/10:30pm 27.7 23.2 5.9 25 11.6 E 19 24 10 13 1016.9 1013.7 0.0
25/10:00pm 28.1 23.4 6.2 25 11.8 E 20 26 11 14 1016.4 1013.3 0.0
25/09:30pm 28.9 24.3 6.3 24 12.2 E 20 26 11 14 1016.3 1013.2 0.0

Other Formats:

Comma delimited format used in spreadsheet applications
http://www.bom.gov.au/fwo/IDD60801/IDD60801.94462.axf

JavaScript Object Notation format (JSON) in row-major order
http://www.bom.gov.au/fwo/IDD60801/IDD60801.94462.json